Terminal Aerodrome Forecast
Issued by NWS Upton, NY

Home | Current Version | Previous Version | Text Only | Print | Product List | Glossary On
Versions: 1 2 3 4 5 6 7 8 9 10 11 12 13 14 15 16 17 18 19 20 21 22 23 24
000
FTUS41 KOKX 301700
TAFBDR
TAF
KBDR 301740Z 3018/0118 08008KT P6SM OVC012
      TEMPO 3018/3020 -RA
     FM302000 08010KT 6SM BR SCT015 BKN025
     FM302300 06011KT 6SM -RA BR SCT012 OVC025
     FM010400 06012KT 5SM -RA BR OVC012
     FM011300 03013G19KT 3SM -RA BR OVC009=

USA.gov is the U.S. government's official web portal to all federal, state and local government web resources and services.